createdAt,value
2018-03-06T00:00:39.802Z,142.87
2018-03-06T00:03:08.934Z,147.57
2018-03-06T00:05:38.673Z,141.13
2018-03-06T00:08:08.767Z,146.90
2018-03-06T00:10:38.047Z,136.27
2018-03-06T00:13:06.965Z,141.60
2018-03-06T00:15:36.065Z,161.87
2018-03-06T00:18:05.793Z,134.60
2018-03-06T00:20:35.031Z,139.17
2018-03-06T00:23:04.019Z,136.30
2018-03-06T00:25:32.990Z,145.07
2018-03-06T00:28:02.031Z,134.17
2018-03-06T00:30:31.759Z,137.87
2018-03-06T00:33:00.914Z,127.97
2018-03-06T00:35:31.177Z,139.67
2018-03-06T00:38:00.926Z,141.23
2018-03-06T00:40:29.835Z,132.60
2018-03-06T00:42:58.891Z,142.37
2018-03-06T00:45:28.773Z,131.93
2018-03-06T00:47:58.870Z,140.80
2018-03-06T00:50:27.780Z,135.80
2018-03-06T00:52:56.692Z,135.30
2018-03-06T00:55:26.388Z,141.17
2018-03-06T00:57:56.089Z,144.17
2018-03-06T01:00:25.019Z,127.73
2018-03-06T01:02:54.736Z,118.37
2018-03-06T01:05:23.627Z,92.53
2018-03-06T01:07:52.583Z,101.43
2018-03-06T01:10:21.546Z,91.07
2018-03-06T01:12:50.460Z,95.83
2018-03-06T01:15:19.426Z,64.60
2018-03-06T01:17:48.298Z,49.10
2018-03-06T01:20:17.254Z,56.07
2018-03-06T01:22:46.110Z,78.60
2018-03-06T01:25:15.097Z,68.67
2018-03-06T01:27:43.956Z,39.10
2018-03-06T01:30:13.927Z,47.63
2018-03-06T01:32:42.970Z,51.93
2018-03-06T01:35:11.882Z,52.57
2018-03-06T01:37:41.557Z,90.83
2018-03-06T01:40:10.489Z,52.60
2018-03-06T01:42:39.501Z,42.47
2018-03-06T01:45:08.450Z,32.63
2018-03-06T01:47:37.362Z,59.77
2018-03-06T01:50:06.624Z,26.77
2018-03-06T01:52:36.244Z,27.70
2018-03-06T01:55:05.400Z,25.07
2018-03-06T01:57:34.240Z,22.57
2018-03-06T02:00:03.356Z,24.13
2018-03-06T02:02:32.437Z,24.37
2018-03-06T02:05:01.779Z,21.43
2018-03-06T02:07:30.675Z,27.63
2018-03-06T02:09:59.691Z,27.13
2018-03-06T02:12:29.351Z,25.80
2018-03-06T02:14:58.294Z,25.30
2018-03-06T02:17:27.139Z,27.03
2018-03-06T02:19:56.068Z,23.43
2018-03-06T02:22:25.138Z,26.80
2018-03-06T02:24:54.167Z,29.57
2018-03-06T02:27:23.770Z,26.80
2018-03-06T02:29:53.851Z,20.93
2018-03-06T02:32:22.906Z,54.10
2018-03-06T02:34:52.756Z,22.73
2018-03-06T02:37:22.548Z,34.80
2018-03-06T02:39:51.645Z,93.67
2018-03-06T02:42:20.535Z,51.57
2018-03-06T02:44:49.421Z,29.63
2018-03-06T02:47:18.275Z,40.37
2018-03-06T02:49:47.261Z,123.30
2018-03-06T02:52:16.885Z,42.23
2018-03-06T02:54:46.758Z,37.10
2018-03-06T02:57:15.648Z,21.90
2018-03-06T02:59:44.651Z,34.53
2018-03-06T03:02:13.596Z,30.00
2018-03-06T03:04:43.273Z,44.53
2018-03-06T03:07:12.362Z,30.33
2018-03-06T03:09:41.546Z,36.50
2018-03-06T03:12:10.500Z,63.60
2018-03-06T03:14:39.562Z,41.63
2018-03-06T03:17:08.422Z,49.37
2018-03-06T03:19:37.477Z,29.53
2018-03-06T03:22:07.594Z,28.03
2018-03-06T03:24:36.518Z,87.73
2018-03-06T03:27:05.720Z,68.30
2018-03-06T03:29:35.770Z,69.77
2018-03-06T03:32:05.719Z,60.10
2018-03-06T03:34:34.712Z,30.57
2018-03-06T03:37:04.474Z,84.03
2018-03-06T03:39:34.124Z,39.03
2018-03-06T03:42:03.839Z,41.57
2018-03-06T03:44:32.766Z,20.93
2018-03-06T03:47:01.838Z,87.47
2018-03-06T03:49:30.718Z,65.53
2018-03-06T03:51:59.776Z,38.00
2018-03-06T03:54:28.665Z,33.37
2018-03-06T03:56:57.587Z,17.70
2018-03-06T03:59:26.482Z,17.20
2018-03-06T04:01:55.579Z,23.30
2018-03-06T04:04:24.606Z,54.07
2018-03-06T04:06:54.605Z,31.00
2018-03-06T04:09:24.366Z,41.90
2018-03-06T04:11:54.042Z,47.80
2018-03-06T04:14:23.007Z,32.93
2018-03-06T04:16:51.921Z,103.33
2018-03-06T04:19:20.851Z,67.43
2018-03-06T04:21:50.525Z,62.33
2018-03-06T04:24:20.351Z,42.13
2018-03-06T04:26:50.159Z,39.60
2018-03-06T04:29:19.105Z,85.10
2018-03-06T04:31:48.027Z,57.13
2018-03-06T04:34:18.198Z,33.03
2018-03-06T04:36:48.475Z,42.63
2018-03-06T04:39:17.612Z,25.17
2018-03-06T04:41:46.540Z,23.77
2018-03-06T04:44:16.019Z,20.90
2018-03-06T04:46:44.950Z,17.77
2018-03-06T04:49:13.814Z,22.43
2018-03-06T04:51:42.737Z,24.50
2018-03-06T04:54:11.671Z,16.43
2018-03-06T04:56:41.435Z,26.77
2018-03-06T04:59:10.531Z,33.70
2018-03-06T05:01:39.499Z,28.63
2018-03-06T05:04:08.499Z,29.07
2018-03-06T05:06:37.406Z,21.53
2018-03-06T05:09:06.362Z,17.27
2018-03-06T05:11:35.957Z,19.93
2018-03-06T05:14:05.643Z,18.70
2018-03-06T05:16:34.591Z,20.40
2018-03-06T05:19:03.595Z,18.43
2018-03-06T05:21:32.514Z,84.10
2018-03-06T05:24:01.419Z,60.10
2018-03-06T05:26:31.099Z,19.57
2018-03-06T05:29:00.087Z,35.03
2018-03-06T05:31:28.910Z,28.77
2018-03-06T05:33:58.147Z,37.87
2018-03-06T05:36:27.169Z,29.47
2018-03-06T05:38:56.284Z,42.07
2018-03-06T05:41:25.240Z,46.73
2018-03-06T05:43:54.119Z,38.60
2018-03-06T05:46:23.867Z,20.53
2018-03-06T05:48:52.928Z,33.63
2018-03-06T05:51:22.103Z,41.77
2018-03-06T05:53:52.075Z,50.97
2018-03-06T05:56:21.150Z,40.10
2018-03-06T05:58:50.340Z,43.83
2018-03-06T06:01:20.254Z,41.33
2018-03-06T06:03:49.316Z,43.37
2018-03-06T06:06:19.792Z,45.47
2018-03-06T06:08:48.731Z,47.70
2018-03-06T06:11:18.003Z,28.43
2018-03-06T06:13:46.958Z,26.33
2018-03-06T06:16:16.696Z,27.10
2018-03-06T06:18:45.563Z,43.90
2018-03-06T06:21:14.650Z,49.63
2018-03-06T06:23:43.939Z,30.37
2018-03-06T06:26:12.926Z,44.93
2018-03-06T06:28:41.874Z,41.87
2018-03-06T06:31:10.953Z,39.80
2018-03-06T06:33:39.874Z,31.17
2018-03-06T06:36:08.842Z,26.10
2018-03-06T06:38:37.838Z,23.83
2018-03-06T06:41:07.175Z,24.03
2018-03-06T06:43:35.972Z,34.47
2018-03-06T06:46:04.845Z,28.80
2018-03-06T06:48:33.828Z,29.57
2018-03-06T06:51:02.823Z,22.60
2018-03-06T06:53:32.582Z,31.00
2018-03-06T06:56:02.296Z,25.90
2018-03-06T06:58:31.288Z,24.50
2018-03-06T07:01:00.239Z,32.00
2018-03-06T07:03:29.139Z,29.87
2018-03-06T07:05:59.047Z,31.47
2018-03-06T07:08:28.006Z,26.30
2018-03-06T07:10:57.049Z,22.93
2018-03-06T07:13:25.949Z,21.60
2018-03-06T07:15:55.053Z,22.10
2018-03-06T07:18:24.182Z,29.70
2018-03-06T07:20:53.088Z,29.30
2018-03-06T07:23:22.014Z,26.40
2018-03-06T07:25:51.822Z,25.07
2018-03-06T07:28:20.817Z,27.97
2018-03-06T07:30:49.894Z,38.03
2018-03-06T07:33:18.708Z,28.80
2018-03-06T07:48:48.423Z,54.83
2018-03-06T07:51:18.132Z,42.77
2018-03-06T07:53:48.221Z,51.40
2018-03-06T07:56:17.592Z,43.80
2018-03-06T07:58:46.512Z,52.20
2018-03-06T08:01:16.261Z,54.47
2018-03-06T08:03:46.097Z,76.60
2018-03-06T08:06:15.038Z,79.13
2018-03-06T08:08:44.082Z,88.13
2018-03-06T08:11:13.019Z,75.03
2018-03-06T08:13:42.982Z,57.13
2018-03-06T08:16:11.926Z,55.83
2018-03-06T08:18:40.925Z,47.07
2018-03-06T08:21:10.895Z,47.93
2018-03-06T08:23:40.740Z,49.87
2018-03-06T08:26:09.665Z,58.27
2018-03-06T08:28:38.526Z,73.30
2018-03-06T08:31:07.515Z,66.43
2018-03-06T08:33:36.461Z,74.03
2018-03-06T08:36:05.430Z,50.83
2018-03-06T08:38:34.277Z,51.67
2018-03-06T08:41:03.233Z,58.03
2018-03-06T08:43:32.812Z,43.90
2018-03-06T08:46:02.573Z,55.57
2018-03-06T08:48:31.489Z,39.93
2018-03-06T08:51:00.372Z,39.57
2018-03-06T08:53:29.308Z,30.63
2018-03-06T08:55:58.466Z,40.90
2018-03-06T08:58:27.730Z,44.83
2018-03-06T09:00:57.315Z,41.97
2018-03-06T09:03:26.163Z,51.27
2018-03-06T09:05:55.024Z,54.27
2018-03-06T09:08:23.924Z,56.70
2018-03-06T09:10:52.827Z,53.87
2018-03-06T09:13:21.663Z,56.37
2018-03-06T09:15:51.528Z,34.27
2018-03-06T09:18:20.388Z,36.90
2018-03-06T09:20:50.332Z,36.10
2018-03-06T09:23:19.362Z,38.23
2018-03-06T09:25:48.393Z,51.93
2018-03-06T09:28:17.517Z,55.23
2018-03-06T09:30:46.410Z,61.03
2018-03-06T09:33:15.533Z,75.07
2018-03-06T09:35:44.395Z,66.20
2018-03-06T09:38:13.329Z,68.80
2018-03-06T09:40:42.212Z,53.37
2018-03-06T09:43:11.063Z,52.47
2018-03-06T09:45:40.148Z,46.13
2018-03-06T09:48:09.137Z,51.97
2018-03-06T09:50:37.981Z,44.40
2018-03-06T09:53:07.764Z,60.93
2018-03-06T09:55:36.643Z,68.33
2018-03-06T09:58:05.691Z,75.40
2018-03-06T10:00:35.480Z,81.73
2018-03-06T10:03:04.404Z,77.13
2018-03-06T10:05:33.436Z,107.10
2018-03-06T10:08:02.258Z,63.17
2018-03-06T10:10:31.355Z,50.57
2018-03-06T10:13:00.191Z,49.33
2018-03-06T10:15:29.867Z,52.30
2018-03-06T10:17:58.806Z,81.83
2018-03-06T10:20:27.764Z,65.70
2018-03-06T10:22:56.638Z,76.03
2018-03-06T10:25:25.633Z,66.90
2018-03-06T10:27:54.730Z,63.03
2018-03-06T10:30:24.487Z,55.13
2018-03-06T10:32:53.570Z,79.70
2018-03-06T10:35:22.732Z,49.17
2018-03-06T10:37:52.554Z,42.17
2018-03-06T10:40:22.218Z,47.93
2018-03-06T10:42:51.113Z,57.87
2018-03-06T10:45:20.089Z,70.07
2018-03-06T10:47:48.938Z,48.87
2018-03-06T10:50:18.621Z,47.30
2018-03-06T10:52:47.641Z,40.23
2018-03-06T10:55:17.674Z,48.50
2018-03-06T10:57:47.476Z,43.10
2018-03-06T11:00:16.479Z,45.10
2018-03-06T11:02:45.417Z,28.77
2018-03-06T11:05:14.237Z,33.20
2018-03-06T11:07:43.308Z,40.30
2018-03-06T11:10:12.196Z,35.23
2018-03-06T11:12:41.104Z,34.80
2018-03-06T11:15:09.980Z,32.83
2018-03-06T11:17:38.888Z,34.80
2018-03-06T11:20:08.010Z,33.43
2018-03-06T11:22:36.877Z,34.17
2018-03-06T11:25:05.696Z,41.90
2018-03-06T11:27:35.294Z,32.13
2018-03-06T11:30:04.913Z,33.20
2018-03-06T11:32:34.292Z,37.53
2018-03-06T11:35:03.192Z,28.83
2018-03-06T11:37:32.792Z,30.57
2018-03-06T11:40:01.680Z,30.30
2018-03-06T11:42:30.840Z,25.93
2018-03-06T11:44:59.709Z,29.90
2018-03-06T11:47:28.721Z,29.80
2018-03-06T11:49:57.601Z,32.83
2018-03-06T11:52:26.484Z,27.37
2018-03-06T11:54:55.683Z,30.97
2018-03-06T11:57:24.503Z,27.80
2018-03-06T11:59:54.151Z,24.50
2018-03-06T12:02:23.945Z,21.30
2018-03-06T12:04:53.584Z,23.30
2018-03-06T12:07:23.408Z,14.07
2018-03-06T12:09:53.092Z,16.37
2018-03-06T12:12:22.163Z,21.53
2018-03-06T12:14:51.008Z,17.70
2018-03-06T12:17:19.946Z,22.33
2018-03-06T12:19:50.066Z,16.47
2018-03-06T12:22:19.032Z,25.27
2018-03-06T12:24:47.953Z,22.60
2018-03-06T12:27:16.866Z,14.13
2018-03-06T12:29:45.759Z,15.67
2018-03-06T12:32:14.775Z,17.07
2018-03-06T12:34:43.970Z,20.03
2018-03-06T12:37:12.871Z,21.50
2018-03-06T12:39:41.738Z,22.00
2018-03-06T12:42:10.628Z,24.00
2018-03-06T12:44:39.793Z,17.17
2018-03-06T12:47:08.580Z,27.43
2018-03-06T12:49:37.423Z,23.57
2018-03-06T12:52:06.476Z,20.83
2018-03-06T12:54:36.076Z,21.97
2018-03-06T12:57:05.018Z,24.33
2018-03-06T12:59:33.987Z,22.00
2018-03-06T13:02:02.860Z,30.33
2018-03-06T13:04:32.475Z,34.73
2018-03-06T13:07:02.099Z,30.77
2018-03-06T13:09:31.634Z,33.33
2018-03-06T13:12:00.881Z,33.63
2018-03-06T13:14:30.600Z,23.57
2018-03-06T13:16:59.420Z,18.90
2018-03-06T13:19:28.779Z,24.47
2018-03-06T13:21:58.390Z,26.53
2018-03-06T13:24:28.043Z,26.90
2018-03-06T13:26:57.003Z,14.97
2018-03-06T13:29:25.797Z,20.07
2018-03-06T13:31:55.495Z,14.03
2018-03-06T13:34:24.927Z,19.40
2018-03-06T13:36:54.813Z,13.10
2018-03-06T13:39:23.647Z,16.90
2018-03-06T13:41:52.535Z,16.70
2018-03-06T13:44:22.526Z,19.67
2018-03-06T13:46:51.480Z,18.03
2018-03-06T13:49:20.395Z,15.53
2018-03-06T13:51:51.097Z,15.63
2018-03-06T13:54:20.159Z,19.47
2018-03-06T13:56:49.002Z,16.70
2018-03-06T13:59:18.003Z,22.77
2018-03-06T14:01:47.695Z,19.80
2018-03-06T14:04:18.052Z,17.97
2018-03-06T14:06:46.872Z,22.00
2018-03-06T14:09:15.832Z,23.73
2018-03-06T14:11:44.684Z,15.90
2018-03-06T14:14:13.527Z,18.13
2018-03-06T14:16:42.398Z,25.30
2018-03-06T14:19:11.273Z,72.33
2018-03-06T14:21:40.920Z,78.53
2018-03-06T14:24:10.000Z,55.20
2018-03-06T14:26:39.196Z,31.93
2018-03-06T14:29:08.045Z,30.83
2018-03-06T14:31:37.677Z,19.63
2018-03-06T14:34:07.368Z,70.30
2018-03-06T14:36:36.529Z,24.17
2018-03-06T14:39:05.455Z,32.07
2018-03-06T14:41:34.532Z,59.20
2018-03-06T14:44:03.512Z,50.13
2018-03-06T14:46:32.343Z,82.63
2018-03-06T14:49:01.640Z,73.77
2018-03-06T14:51:30.841Z,37.70
2018-03-06T14:54:00.603Z,47.37
2018-03-06T14:56:29.503Z,46.60
2018-03-06T14:58:58.443Z,72.70
2018-03-06T15:01:28.111Z,74.37
2018-03-06T15:03:57.024Z,62.00
2018-03-06T15:06:25.848Z,60.17
2018-03-06T15:08:54.789Z,30.57
2018-03-06T15:11:24.492Z,25.30
2018-03-06T15:13:53.437Z,69.43
2018-03-06T15:16:23.068Z,24.57
2018-03-06T15:18:51.927Z,24.47
2018-03-06T15:21:21.625Z,35.83
2018-03-06T15:23:51.237Z,40.63
2018-03-06T15:26:21.186Z,38.37
2018-03-06T15:28:51.097Z,59.93
2018-03-06T15:31:19.967Z,20.90
2018-03-06T15:33:48.812Z,20.53
2018-03-06T15:36:17.681Z,19.17
2018-03-06T15:38:46.524Z,37.73
2018-03-06T15:41:15.637Z,26.87
2018-03-06T15:43:44.505Z,30.67
2018-03-06T15:46:14.315Z,26.77
2018-03-06T15:48:43.152Z,22.57
2018-03-06T15:51:12.158Z,19.93
2018-03-06T15:53:41.036Z,23.10
2018-03-06T15:56:11.810Z,16.10
2018-03-06T15:58:41.792Z,21.13
2018-03-06T16:01:13.551Z,20.40
2018-03-06T16:03:43.095Z,21.30
2018-03-06T16:06:11.908Z,21.10
2018-03-06T16:08:41.088Z,18.90
2018-03-06T16:11:09.874Z,19.17
2018-03-06T16:13:38.865Z,19.20
2018-03-06T16:16:07.736Z,20.50
2018-03-06T16:18:37.696Z,33.67
2018-03-06T16:21:07.331Z,20.87
2018-03-06T16:23:36.251Z,23.50
2018-03-06T16:26:05.125Z,19.10
2018-03-06T16:28:34.141Z,18.30
2018-03-06T16:31:03.746Z,20.27
2018-03-06T16:33:33.389Z,19.80
2018-03-06T16:36:02.330Z,25.00
2018-03-06T16:38:31.477Z,29.63
2018-03-06T16:41:00.348Z,23.80
2018-03-06T16:43:29.586Z,27.23
2018-03-06T16:45:58.477Z,24.77
2018-03-06T16:48:28.584Z,28.80
2018-03-06T16:50:57.959Z,41.40
2018-03-06T16:53:27.142Z,30.03
2018-03-06T16:55:56.047Z,21.90
2018-03-06T16:58:25.882Z,19.30
2018-03-06T17:00:56.748Z,23.03
2018-03-06T17:03:26.768Z,24.07
2018-03-06T17:05:56.303Z,26.00
2018-03-06T17:08:25.162Z,26.73
2018-03-06T17:10:55.058Z,29.27
2018-03-06T17:13:24.686Z,25.43
2018-03-06T17:15:53.572Z,27.03
2018-03-06T17:18:22.920Z,27.47
2018-03-06T17:20:52.548Z,29.70
2018-03-06T17:23:22.508Z,28.83
2018-03-06T17:25:51.339Z,30.93
2018-03-06T17:28:20.330Z,30.90
2018-03-06T17:30:49.935Z,35.03
2018-03-06T17:33:18.829Z,35.37
2018-03-06T17:35:47.970Z,27.40
2018-03-06T17:38:17.336Z,36.17
2018-03-06T17:40:46.993Z,41.57
2018-03-06T17:43:16.348Z,35.93
2018-03-06T17:45:45.980Z,35.27
2018-03-06T17:48:14.765Z,31.43
2018-03-06T17:50:43.665Z,27.53
2018-03-06T17:53:12.589Z,22.70
2018-03-06T17:55:41.627Z,28.73
2018-03-06T17:58:11.548Z,27.83
2018-03-06T18:00:40.571Z,28.60
2018-03-06T18:03:09.464Z,29.40
2018-03-06T18:05:38.399Z,37.80
2018-03-06T18:08:07.306Z,25.33
2018-03-06T18:10:37.293Z,27.87
2018-03-06T18:13:07.273Z,33.07
2018-03-06T18:15:37.346Z,29.83
2018-03-06T18:18:06.513Z,34.57
2018-03-06T18:20:36.482Z,30.90
2018-03-06T18:23:06.842Z,36.20
2018-03-06T18:25:35.907Z,34.80
2018-03-06T18:28:05.016Z,26.87
2018-03-06T18:30:34.047Z,24.50
2018-03-06T18:33:03.132Z,30.97
2018-03-06T18:35:32.635Z,32.20
2018-03-06T18:38:01.988Z,31.00
2018-03-06T18:40:31.227Z,39.90
2018-03-06T18:43:00.614Z,35.07
2018-03-06T18:45:30.324Z,26.90
2018-03-06T18:47:59.751Z,28.67
2018-03-06T18:50:41.130Z,27.10
2018-03-06T18:53:10.471Z,26.50
2018-03-06T18:55:40.888Z,23.87
2018-03-06T18:58:10.111Z,24.47
2018-03-06T19:00:59.871Z,24.53
2018-03-06T19:03:40.842Z,22.20
2018-03-06T19:06:23.455Z,22.03
2018-03-06T19:08:52.880Z,15.33
2018-03-06T19:11:22.246Z,14.97
2018-03-06T19:13:51.470Z,16.13
2018-03-06T19:16:21.889Z,15.73
2018-03-06T19:18:51.649Z,13.20
2018-03-06T19:21:21.672Z,14.93
2018-03-06T19:23:51.041Z,15.37
2018-03-06T19:26:20.498Z,14.97
2018-03-06T19:28:49.750Z,12.90
2018-03-06T19:31:19.030Z,35.63
2018-03-06T19:33:48.274Z,17.07
2018-03-06T19:36:18.606Z,20.33
2018-03-06T19:38:49.628Z,13.13
2018-03-06T19:41:18.940Z,13.00
2018-03-06T19:43:48.987Z,14.47
2018-03-06T19:46:18.368Z,13.57
2018-03-06T19:48:47.770Z,13.03
2018-03-06T19:51:17.063Z,14.33
2018-03-06T19:53:46.487Z,13.20
2018-03-06T19:56:15.807Z,17.03
2018-03-06T19:58:45.241Z,23.23
2018-03-06T20:01:14.480Z,20.20
2018-03-06T20:03:43.748Z,14.83
2018-03-06T20:06:13.704Z,22.07
2018-03-06T20:08:43.033Z,26.17
2018-03-06T20:11:12.337Z,28.90
2018-03-06T20:13:41.853Z,18.60
2018-03-06T20:16:11.165Z,16.40
2018-03-06T20:18:40.677Z,17.03
2018-03-06T20:21:10.018Z,13.20
2018-03-06T20:23:39.342Z,11.37
2018-03-06T20:26:09.638Z,13.80
2018-03-06T20:28:39.163Z,13.80
2018-03-06T20:31:24.054Z,14.90
2018-03-06T20:33:53.309Z,10.50
2018-03-06T20:36:22.523Z,11.23
2018-03-06T20:38:57.509Z,13.53
2018-03-06T20:41:27.640Z,9.77
2018-03-06T20:43:57.146Z,11.50
2018-03-06T20:46:46.908Z,18.40
2018-03-06T20:49:17.237Z,11.93
2018-03-06T20:51:47.049Z,12.27
2018-03-06T20:54:22.581Z,14.23
2018-03-06T20:56:52.532Z,17.60
2018-03-06T20:59:22.733Z,24.13
2018-03-06T21:01:51.987Z,16.20
2018-03-06T21:04:21.066Z,28.03
2018-03-06T21:06:50.166Z,28.23
2018-03-06T21:09:19.042Z,19.97
2018-03-06T21:11:48.194Z,17.93
2018-03-06T21:14:17.042Z,21.67
2018-03-06T21:16:46.688Z,14.07
2018-03-06T21:19:15.613Z,15.43
2018-03-06T21:21:44.553Z,30.87
2018-03-06T21:24:13.465Z,40.97
2018-03-06T21:26:43.187Z,23.30
2018-03-06T21:29:12.109Z,26.10
2018-03-06T21:31:40.949Z,18.73
2018-03-06T21:34:10.085Z,22.07
2018-03-06T21:36:38.916Z,12.23
2018-03-06T21:39:07.759Z,16.23
2018-03-06T21:41:36.917Z,11.90
2018-03-06T21:44:05.849Z,11.17
2018-03-06T21:46:34.790Z,11.40
2018-03-06T21:49:03.643Z,12.90
2018-03-06T21:51:32.430Z,17.10
2018-03-06T21:54:02.108Z,21.67
2018-03-06T21:56:31.869Z,22.37
2018-03-06T21:59:00.862Z,23.97
2018-03-06T22:01:29.694Z,23.67
2018-03-06T22:03:58.628Z,27.53
2018-03-06T22:06:27.498Z,19.60
2018-03-06T22:08:56.556Z,15.57
2018-03-06T22:11:25.560Z,20.57
2018-03-06T22:13:54.476Z,18.83
2018-03-06T22:16:23.409Z,11.30
2018-03-06T22:18:52.222Z,17.00
2018-03-06T22:21:21.173Z,17.70
2018-03-06T22:23:51.003Z,11.53
2018-03-06T22:26:20.063Z,13.83
2018-03-06T22:28:49.128Z,12.80
2018-03-06T22:31:18.665Z,12.87
2018-03-06T22:33:47.526Z,14.93
2018-03-06T22:36:16.625Z,12.17
2018-03-06T22:38:45.662Z,18.00
2018-03-06T22:41:14.682Z,14.13
2018-03-06T22:43:45.620Z,15.20
2018-03-06T22:46:19.493Z,12.80
2018-03-06T22:48:48.550Z,15.70
2018-03-06T22:51:18.328Z,11.03
2018-03-06T22:53:48.042Z,15.87
2018-03-06T22:56:17.678Z,13.77
2018-03-06T22:58:47.349Z,16.03
2018-03-06T23:01:16.169Z,20.83
2018-03-06T23:03:45.089Z,17.57
2018-03-06T23:06:13.949Z,17.23
2018-03-06T23:08:43.081Z,12.87
2018-03-06T23:11:11.925Z,22.57
2018-03-06T23:13:41.621Z,25.33
2018-03-06T23:16:10.519Z,19.70
2018-03-06T23:18:40.096Z,16.37
2018-03-06T23:21:09.141Z,16.60
2018-03-06T23:23:39.258Z,14.53
2018-03-06T23:26:11.585Z,21.00
2018-03-06T23:28:40.973Z,18.07
2018-03-06T23:31:09.952Z,20.20
2018-03-06T23:33:42.749Z,17.97
2018-03-06T23:36:11.925Z,18.30
2018-03-06T23:38:40.804Z,16.13
2018-03-06T23:41:10.605Z,15.60
2018-03-06T23:43:40.217Z,16.83
2018-03-06T23:46:09.103Z,13.23
2018-03-06T23:48:38.719Z,16.73
2018-03-06T23:51:07.645Z,15.47
2018-03-06T23:53:36.802Z,12.67
2018-03-06T23:56:06.432Z,15.57
2018-03-06T23:58:35.274Z,18.27
